createdAt,value
2018-01-30T00:58:03.309Z,8.77
2018-01-30T01:00:29.486Z,4.67
2018-01-30T01:02:55.701Z,8.07
2018-01-30T01:05:21.979Z,12.13
2018-01-30T01:07:48.149Z,7.00
2018-01-30T01:10:14.308Z,8.80
2018-01-30T01:12:40.503Z,7.97
2018-01-30T01:15:06.772Z,15.60
2018-01-30T01:17:33.000Z,10.97
2018-01-30T01:19:59.142Z,16.43
2018-01-30T01:22:25.308Z,11.33
2018-01-30T01:24:51.560Z,9.13
2018-01-30T01:27:17.982Z,15.17
2018-01-30T01:29:45.155Z,16.37
2018-01-30T01:32:11.471Z,16.00
2018-01-30T01:34:37.787Z,14.93
2018-01-30T01:37:04.118Z,12.67
2018-01-30T01:39:30.261Z,11.17
2018-01-30T01:41:56.415Z,10.87
2018-01-30T01:44:22.633Z,15.13
2018-01-30T01:46:48.823Z,8.93
2018-01-30T01:49:14.968Z,10.10
2018-01-30T01:51:41.150Z,10.97
2018-01-30T01:54:07.297Z,7.20
2018-01-30T01:56:33.456Z,13.73
2018-01-30T01:58:59.619Z,7.60
2018-01-30T02:01:25.772Z,9.30
2018-01-30T02:03:51.891Z,7.40
2018-01-30T02:06:18.102Z,7.57
2018-01-30T02:08:44.269Z,12.50
2018-01-30T02:11:10.449Z,8.40
2018-01-30T02:13:36.658Z,10.67
2018-01-30T02:16:02.943Z,6.90
2018-01-30T02:18:29.077Z,11.30
2018-01-30T02:20:55.293Z,12.40
2018-01-30T02:23:21.455Z,7.83
2018-01-30T02:25:47.603Z,12.03
2018-01-30T02:28:13.796Z,9.13
2018-01-30T02:30:39.940Z,13.20
2018-01-30T02:33:06.628Z,9.97
2018-01-30T02:35:34.028Z,12.13
2018-01-30T02:38:00.188Z,7.63
2018-01-30T02:40:26.346Z,8.43
2018-01-30T02:42:52.530Z,6.20
2018-01-30T02:45:18.711Z,15.87
2018-01-30T02:47:44.844Z,14.77
2018-01-30T02:50:11.034Z,8.30
2018-01-30T02:52:37.235Z,12.03
2018-01-30T02:55:04.415Z,10.63
2018-01-30T02:57:30.575Z,10.67
2018-01-30T02:59:56.721Z,10.50
2018-01-30T03:02:22.856Z,7.63
2018-01-30T03:04:49.042Z,8.70
2018-01-30T03:07:15.168Z,8.80
2018-01-30T03:09:41.382Z,12.60
2018-01-30T03:12:07.583Z,13.63
2018-01-30T03:14:33.754Z,10.27
2018-01-30T03:16:59.939Z,10.77
2018-01-30T03:19:26.137Z,12.53
2018-01-30T03:21:52.293Z,11.63
2018-01-30T03:24:18.415Z,9.67
2018-01-30T03:26:44.664Z,9.37
2018-01-30T03:29:10.822Z,14.37
2018-01-30T03:31:36.956Z,9.53
2018-01-30T03:34:03.183Z,9.07
2018-01-30T03:36:29.328Z,12.70
2018-01-30T03:38:55.485Z,10.93
2018-01-30T03:41:21.620Z,10.53
2018-01-30T03:43:47.796Z,8.77
2018-01-30T03:46:13.943Z,9.30
2018-01-30T03:48:40.129Z,12.40
2018-01-30T03:51:06.287Z,10.73
2018-01-30T03:53:32.429Z,11.07
2018-01-30T03:55:58.681Z,12.87
2018-01-30T03:58:24.831Z,13.90
2018-01-30T04:00:50.968Z,12.70
2018-01-30T04:03:17.125Z,9.30
2018-01-30T04:05:43.281Z,11.17
2018-01-30T04:08:09.418Z,7.63
2018-01-30T04:10:35.613Z,12.57
2018-01-30T04:13:01.766Z,14.70
2018-01-30T04:15:27.937Z,12.00
2018-01-30T04:17:54.230Z,14.57
2018-01-30T04:20:20.434Z,12.43
2018-01-30T04:22:46.597Z,7.17
2018-01-30T04:25:12.759Z,8.97
2018-01-30T04:27:38.936Z,9.97
2018-01-30T04:30:05.108Z,12.07
2018-01-30T04:32:31.336Z,15.70
2018-01-30T04:34:57.481Z,10.43
2018-01-30T04:37:23.652Z,13.63
2018-01-30T04:39:49.903Z,11.37
2018-01-30T04:42:16.912Z,11.43
2018-01-30T04:44:43.069Z,8.47
2018-01-30T04:47:09.342Z,12.93
2018-01-30T04:49:35.492Z,8.43
2018-01-30T04:52:01.624Z,9.83
2018-01-30T04:54:27.829Z,14.57
2018-01-30T04:56:53.976Z,9.20
2018-01-30T04:59:20.118Z,12.63
2018-01-30T05:01:46.287Z,9.50
2018-01-30T05:04:12.441Z,10.03
2018-01-30T05:06:38.609Z,8.83
2018-01-30T05:09:04.834Z,17.67
2018-01-30T05:11:30.999Z,15.03
2018-01-30T05:13:57.162Z,22.10
2018-01-30T05:16:23.366Z,16.23
2018-01-30T05:18:49.610Z,13.57
2018-01-30T05:21:15.760Z,19.23
2018-01-30T05:23:41.965Z,11.57
2018-01-30T05:26:08.119Z,13.13
2018-01-30T05:28:34.285Z,9.80
2018-01-30T05:31:00.461Z,18.93
2018-01-30T05:33:26.632Z,9.73
2018-01-30T05:35:52.786Z,12.47
2018-01-30T05:38:18.953Z,16.03
2018-01-30T05:40:45.107Z,13.43
2018-01-30T05:43:11.257Z,17.80
2018-01-30T05:45:37.425Z,19.07
2018-01-30T05:48:03.684Z,15.40
2018-01-30T05:50:29.863Z,15.87
2018-01-30T05:52:56.095Z,15.93
2018-01-30T05:55:22.246Z,13.10
2018-01-30T05:57:48.400Z,13.73
2018-01-30T06:00:14.572Z,22.60
2018-01-30T06:02:40.724Z,22.47
2018-01-30T06:05:06.880Z,21.97
2018-01-30T06:07:33.029Z,19.07
2018-01-30T06:09:59.203Z,14.93
2018-01-30T06:12:26.344Z,21.43
2018-01-30T06:14:52.472Z,24.87
2018-01-30T06:17:18.799Z,31.17
2018-01-30T06:19:45.040Z,25.90
2018-01-30T06:22:11.201Z,26.63
2018-01-30T06:24:37.431Z,24.13
2018-01-30T06:27:03.591Z,21.93
2018-01-30T06:29:29.756Z,22.87
2018-01-30T06:31:56.676Z,15.30
2018-01-30T06:34:22.879Z,16.20
2018-01-30T06:36:49.194Z,15.73
2018-01-30T06:39:16.914Z,14.80
2018-01-30T06:41:43.067Z,20.07
2018-01-30T06:44:09.194Z,18.27
2018-01-30T06:46:35.398Z,13.17
2018-01-30T06:49:01.646Z,18.47
2018-01-30T06:51:27.890Z,17.57
2018-01-30T06:53:54.093Z,24.33
2018-01-30T06:56:20.295Z,23.47
2018-01-30T06:58:46.483Z,26.83
2018-01-30T07:01:12.655Z,27.47
2018-01-30T07:03:38.777Z,28.40
2018-01-30T07:06:04.945Z,19.00
2018-01-30T07:08:31.121Z,24.13
2018-01-30T07:10:57.275Z,30.03
2018-01-30T07:13:23.497Z,38.13
2018-01-30T07:15:49.664Z,20.00
2018-01-30T07:18:15.880Z,23.50
2018-01-30T07:20:42.166Z,23.30
2018-01-30T07:23:08.785Z,21.60
2018-01-30T07:25:35.015Z,29.43
2018-01-30T07:28:01.243Z,28.67
2018-01-30T07:30:27.372Z,39.37
2018-01-30T07:32:53.537Z,40.27
2018-01-30T07:35:19.769Z,41.60
2018-01-30T07:37:45.905Z,39.10
2018-01-30T07:40:12.036Z,38.83
2018-01-30T07:42:38.248Z,33.23
2018-01-30T07:45:04.419Z,38.00
2018-01-30T07:47:30.617Z,32.67
2018-01-30T07:49:56.923Z,36.43
2018-01-30T07:52:23.092Z,37.43
2018-01-30T07:54:49.364Z,32.63
2018-01-30T07:57:15.590Z,29.93
2018-01-30T07:59:41.746Z,32.53
2018-01-30T08:02:07.895Z,33.30
2018-01-30T08:04:34.141Z,37.87
2018-01-30T08:07:01.199Z,40.83
2018-01-30T08:09:27.339Z,35.10
2018-01-30T08:11:53.545Z,32.80
2018-01-30T08:14:19.693Z,31.70
2018-01-30T08:16:45.872Z,38.20
2018-01-30T08:19:12.097Z,37.00
2018-01-30T08:21:38.312Z,37.60
2018-01-30T08:24:04.489Z,40.30
2018-01-30T08:26:30.634Z,34.50
2018-01-30T08:28:56.826Z,32.40
2018-01-30T08:31:22.998Z,38.33
2018-01-30T08:33:49.194Z,36.20
2018-01-30T08:36:15.356Z,37.80
2018-01-30T08:38:41.551Z,33.07
2018-01-30T08:41:07.712Z,34.90
2018-01-30T08:43:33.842Z,31.37
2018-01-30T08:46:00.048Z,32.53
2018-01-30T08:48:26.282Z,57.73
2018-01-30T08:50:52.498Z,62.93
2018-01-30T08:53:18.711Z,50.93
2018-01-30T08:55:45.176Z,45.30
2018-01-30T08:58:11.478Z,30.33
2018-01-30T09:00:37.704Z,22.87
2018-01-30T09:03:03.840Z,20.67
2018-01-30T09:05:30.007Z,20.13
2018-01-30T09:07:56.212Z,22.67
2018-01-30T09:10:22.374Z,20.53
2018-01-30T09:12:48.601Z,16.47
2018-01-30T09:15:14.933Z,15.70
2018-01-30T09:17:41.157Z,18.60
2018-01-30T09:20:07.467Z,19.77
2018-01-30T09:22:33.594Z,17.90
2018-01-30T09:24:59.735Z,19.73
2018-01-30T09:27:25.945Z,18.90
2018-01-30T09:29:52.154Z,21.17
2018-01-30T09:32:18.274Z,16.83
2018-01-30T09:34:44.455Z,14.47
2018-01-30T09:37:10.628Z,14.50
2018-01-30T09:39:36.816Z,17.47
2018-01-30T09:42:03.018Z,14.80
2018-01-30T09:44:29.220Z,16.17
2018-01-30T09:46:55.433Z,18.47
2018-01-30T09:49:21.672Z,20.53
2018-01-30T09:51:47.824Z,21.53
2018-01-30T09:54:14.006Z,15.87
2018-01-30T09:56:40.149Z,18.07
2018-01-30T09:59:06.337Z,13.57
2018-01-30T10:01:32.567Z,19.10
2018-01-30T10:03:58.739Z,17.27
2018-01-30T10:06:24.894Z,17.77
2018-01-30T10:08:51.080Z,12.83
2018-01-30T10:11:17.261Z,18.97
2018-01-30T10:13:43.517Z,19.70
2018-01-30T10:16:09.710Z,16.73
2018-01-30T10:18:37.131Z,14.63
2018-01-30T10:21:03.340Z,20.43
2018-01-30T10:23:30.107Z,17.13
2018-01-30T10:25:56.355Z,18.03
2018-01-30T10:28:23.188Z,16.73
2018-01-30T10:30:49.387Z,17.73
2018-01-30T10:33:15.751Z,16.23
2018-01-30T10:35:41.879Z,22.83
2018-01-30T10:38:08.055Z,17.20
2018-01-30T10:40:34.217Z,16.83
2018-01-30T10:43:00.403Z,14.27
2018-01-30T10:45:26.723Z,15.10
2018-01-30T10:50:53.936Z,15.43
2018-01-30T10:53:26.706Z,15.10
2018-01-30T10:55:53.204Z,18.50
2018-01-30T10:58:28.647Z,13.73
2018-01-30T11:01:03.395Z,15.07
2018-01-30T11:03:32.513Z,9.97
2018-01-30T11:06:00.852Z,14.30
2018-01-30T11:08:28.663Z,11.40
2018-01-30T11:10:56.317Z,14.63
2018-01-30T11:13:24.272Z,14.40
2018-01-30T11:15:55.662Z,10.40
2018-01-30T11:18:24.004Z,8.57
2018-01-30T11:20:51.726Z,14.07
2018-01-30T11:23:19.348Z,12.67
2018-01-30T11:25:47.072Z,13.60
2018-01-30T11:28:14.332Z,14.87
2018-01-30T11:30:43.290Z,13.00
2018-01-30T11:33:11.333Z,10.30
2018-01-30T11:35:40.568Z,13.17
2018-01-30T11:38:08.831Z,12.90
2018-01-30T11:40:37.567Z,11.57
2018-01-30T11:43:05.246Z,9.40
2018-01-30T11:48:26.751Z,11.47
2018-01-30T11:50:56.775Z,9.10
2018-01-30T11:53:26.279Z,10.77
2018-01-30T11:55:52.460Z,11.90
2018-01-30T11:58:18.652Z,13.00
2018-01-30T12:00:44.876Z,12.73
2018-01-30T12:03:11.030Z,9.80
2018-01-30T12:05:37.269Z,11.60
2018-01-30T12:08:03.506Z,13.33
2018-01-30T12:10:29.687Z,11.97
2018-01-30T12:12:55.841Z,10.37
2018-01-30T12:15:22.105Z,12.60
2018-01-30T12:17:48.341Z,14.13
2018-01-30T12:20:14.533Z,13.30
2018-01-30T12:22:40.759Z,11.17
2018-01-30T12:25:06.906Z,12.33
2018-01-30T12:27:33.067Z,12.13
2018-01-30T12:29:59.265Z,8.40
2018-01-30T12:32:25.405Z,13.17
2018-01-30T12:34:51.616Z,21.00
2018-01-30T12:37:17.776Z,12.23
2018-01-30T12:39:43.982Z,11.50
2018-01-30T12:42:10.213Z,8.17
2018-01-30T12:44:36.372Z,11.23
2018-01-30T12:47:02.563Z,9.63
2018-01-30T12:49:28.783Z,13.13
2018-01-30T12:51:55.903Z,9.00
2018-01-30T12:54:22.065Z,13.27
2018-01-30T12:56:48.314Z,12.20
2018-01-30T12:59:14.508Z,13.30
2018-01-30T13:01:40.640Z,10.87
2018-01-30T13:04:06.836Z,17.90
2018-01-30T13:06:32.966Z,11.73
2018-01-30T13:08:59.152Z,13.20
2018-01-30T13:11:25.338Z,14.37
2018-01-30T13:13:51.549Z,13.37
2018-01-30T13:16:17.721Z,10.07
2018-01-30T13:18:43.918Z,12.87
2018-01-30T13:21:10.773Z,10.83
2018-01-30T13:23:37.920Z,11.13
2018-01-30T13:26:04.087Z,13.33
2018-01-30T13:28:30.207Z,11.70
2018-01-30T13:30:56.341Z,12.83
2018-01-30T13:33:22.512Z,11.67
2018-01-30T13:35:48.703Z,12.00
2018-01-30T13:38:14.911Z,12.13
2018-01-30T13:40:41.142Z,14.90
2018-01-30T13:43:07.348Z,12.73
2018-01-30T13:45:33.488Z,9.60
2018-01-30T13:47:59.725Z,8.13
2018-01-30T13:50:27.082Z,13.03
2018-01-30T13:52:53.215Z,11.90
2018-01-30T13:55:19.440Z,10.97
2018-01-30T13:57:45.571Z,11.63
2018-01-30T14:00:11.767Z,11.53
2018-01-30T14:02:37.958Z,10.27
2018-01-30T14:05:04.113Z,12.43
2018-01-30T14:07:30.271Z,10.10
2018-01-30T14:09:56.536Z,9.23
2018-01-30T14:12:22.699Z,8.23
2018-01-30T14:14:48.831Z,8.03
2018-01-30T14:17:15.130Z,10.77
2018-01-30T14:19:41.256Z,10.27
2018-01-30T14:22:07.355Z,11.07
2018-01-30T14:24:33.574Z,6.87
2018-01-30T14:26:59.708Z,8.83
2018-01-30T14:29:25.830Z,8.30
2018-01-30T14:31:52.075Z,8.27
2018-01-30T14:34:18.221Z,5.40
2018-01-30T14:36:44.385Z,7.60
2018-01-30T14:39:10.558Z,10.13
2018-01-30T14:41:36.693Z,5.80
2018-01-30T14:44:02.863Z,6.40
2018-01-30T14:46:29.019Z,6.90
2018-01-30T14:48:55.208Z,7.80
2018-01-30T14:51:21.408Z,10.50
2018-01-30T14:53:47.559Z,9.43
2018-01-30T14:56:13.805Z,8.47
2018-01-30T14:58:39.962Z,9.13
2018-01-30T15:01:06.166Z,9.10
2018-01-30T15:03:32.294Z,9.43
2018-01-30T15:05:58.464Z,11.27
2018-01-30T15:08:24.706Z,9.50
2018-01-30T15:10:50.873Z,7.80
2018-01-30T15:13:17.065Z,7.83
2018-01-30T15:15:43.297Z,5.57
2018-01-30T15:18:09.633Z,8.03
2018-01-30T15:20:35.787Z,8.47
2018-01-30T15:23:01.927Z,11.40
2018-01-30T15:25:28.100Z,10.33
2018-01-30T15:27:54.245Z,12.27
2018-01-30T15:30:20.436Z,12.67
2018-01-30T15:32:46.588Z,12.63
2018-01-30T15:35:12.750Z,12.60
2018-01-30T15:37:38.944Z,11.30
2018-01-30T15:40:05.210Z,14.20
2018-01-30T15:42:31.334Z,12.47
2018-01-30T15:44:57.490Z,11.97
2018-01-30T15:47:24.718Z,11.70
2018-01-30T15:49:50.872Z,12.27
2018-01-30T15:52:17.013Z,10.10
2018-01-30T15:54:43.164Z,11.67
2018-01-30T15:57:09.304Z,12.67
2018-01-30T15:59:35.457Z,10.90
2018-01-30T16:02:01.735Z,9.67
2018-01-30T16:04:28.040Z,10.07
2018-01-30T16:06:54.216Z,14.37
2018-01-30T16:09:20.490Z,10.00
2018-01-30T16:11:46.629Z,10.80
2018-01-30T16:14:12.800Z,11.20
2018-01-30T16:16:38.942Z,11.07
2018-01-30T16:19:05.143Z,12.07
2018-01-30T16:21:31.265Z,12.37
2018-01-30T16:23:57.449Z,12.07
2018-01-30T16:26:23.598Z,11.73
2018-01-30T16:28:49.919Z,13.93
2018-01-30T16:31:16.138Z,16.67
2018-01-30T16:33:42.285Z,13.53
2018-01-30T16:36:08.499Z,13.97
2018-01-30T16:38:34.672Z,14.20
2018-01-30T16:41:00.848Z,15.77
2018-01-30T16:43:27.027Z,20.43
2018-01-30T16:45:53.236Z,47.43
2018-01-30T16:48:19.444Z,46.83
2018-01-30T16:50:45.579Z,19.50
2018-01-30T16:53:11.748Z,29.30
2018-01-30T16:55:38.111Z,25.03
2018-01-30T16:58:04.257Z,31.70
2018-01-30T17:00:30.439Z,54.60
2018-01-30T17:02:56.715Z,65.03
2018-01-30T17:05:22.937Z,44.10
2018-01-30T17:07:49.130Z,31.57
2018-01-30T17:10:15.389Z,28.63
2018-01-30T17:12:41.553Z,26.97
2018-01-30T17:15:07.727Z,31.10
2018-01-30T17:17:33.997Z,43.83
2018-01-30T17:20:00.162Z,46.90
2018-01-30T17:22:26.329Z,38.87
2018-01-30T17:24:52.568Z,29.43
2018-01-30T17:27:18.816Z,44.70
2018-01-30T17:29:45.010Z,37.33
2018-01-30T17:32:11.286Z,39.40
2018-01-30T17:34:37.459Z,23.20
2018-01-30T17:37:03.644Z,22.70
2018-01-30T17:39:29.835Z,28.80
2018-01-30T17:41:56.023Z,35.73
2018-01-30T17:44:22.213Z,27.23
2018-01-30T17:46:48.479Z,27.03
2018-01-30T17:49:14.729Z,22.50
2018-01-30T17:51:40.966Z,21.43
2018-01-30T17:54:07.214Z,27.03
2018-01-30T17:56:33.408Z,30.97
2018-01-30T17:58:59.602Z,27.37
2018-01-30T18:01:25.830Z,30.20
2018-01-30T18:03:51.997Z,27.37
2018-01-30T18:06:18.148Z,28.63
2018-01-30T18:08:44.322Z,23.87
2018-01-30T18:11:10.513Z,27.23
2018-01-30T18:13:36.680Z,25.40
2018-01-30T18:16:02.865Z,24.33
2018-01-30T18:18:29.233Z,23.80
2018-01-30T18:20:55.385Z,26.40
2018-01-30T18:23:21.565Z,31.97
2018-01-30T18:25:47.755Z,32.27
2018-01-30T18:28:13.970Z,31.40
2018-01-30T18:30:40.161Z,27.60
2018-01-30T18:33:06.332Z,30.17
2018-01-30T18:35:32.480Z,28.97
2018-01-30T18:37:58.690Z,36.83
2018-01-30T18:40:24.840Z,33.57
2018-01-30T18:42:51.027Z,51.97
2018-01-30T18:45:17.263Z,74.20
2018-01-30T18:47:43.532Z,62.57
2018-01-30T18:50:09.672Z,53.23
2018-01-30T18:52:35.960Z,45.33
2018-01-30T18:55:02.167Z,37.03
2018-01-30T18:57:28.389Z,56.83
2018-01-30T18:59:54.577Z,62.90
2018-01-30T19:02:20.827Z,80.80
2018-01-30T19:04:47.018Z,64.70
2018-01-30T19:07:13.189Z,56.13
2018-01-30T19:09:39.593Z,43.77
2018-01-30T19:12:05.854Z,41.93
2018-01-30T19:14:32.038Z,38.03
2018-01-30T19:16:58.187Z,41.53
2018-01-30T19:19:24.501Z,42.70
2018-01-30T19:21:51.505Z,39.10
2018-01-30T19:24:17.709Z,34.43
2018-01-30T19:26:43.961Z,30.33
2018-01-30T19:29:10.131Z,40.00
2018-01-30T19:31:36.317Z,38.03
2018-01-30T19:34:02.570Z,39.63
2018-01-30T19:36:28.720Z,43.27
2018-01-30T19:38:54.912Z,42.00
2018-01-30T19:41:21.143Z,53.83
2018-01-30T19:43:47.346Z,47.93
2018-01-30T19:46:13.508Z,44.50
2018-01-30T19:48:39.725Z,37.10
2018-01-30T19:51:05.897Z,32.87
2018-01-30T19:53:32.083Z,33.90
2018-01-30T19:55:58.299Z,40.57
2018-01-30T19:58:24.528Z,37.30
2018-01-30T20:00:50.722Z,38.23
2018-01-30T20:03:16.922Z,78.93
2018-01-30T20:05:43.149Z,52.63
2018-01-30T20:08:09.372Z,57.43
2018-01-30T20:10:35.599Z,78.83
2018-01-30T20:13:01.781Z,62.87
2018-01-30T20:15:27.948Z,93.80
2018-01-30T20:17:54.183Z,72.47
2018-01-30T20:20:20.377Z,60.90
2018-01-30T20:22:46.599Z,61.20
2018-01-30T20:25:12.989Z,56.00
2018-01-30T20:27:39.188Z,59.87
2018-01-30T20:30:05.365Z,59.67
2018-01-30T20:32:31.576Z,56.30
2018-01-30T20:34:57.792Z,61.53
2018-01-30T20:37:24.025Z,57.50
2018-01-30T20:39:50.224Z,60.23
2018-01-30T20:42:16.365Z,63.07
2018-01-30T20:44:42.553Z,63.27
2018-01-30T20:47:08.765Z,57.50
2018-01-30T20:49:34.986Z,62.07
2018-01-30T20:52:01.218Z,58.07
2018-01-30T20:54:27.402Z,58.13
2018-01-30T20:56:54.043Z,56.67
2018-01-30T20:59:20.402Z,64.37
2018-01-30T21:01:46.605Z,68.70
2018-01-30T21:04:12.889Z,72.50
2018-01-30T21:06:39.055Z,73.80
2018-01-30T21:09:05.242Z,74.30
2018-01-30T21:11:31.653Z,72.87
2018-01-30T21:13:57.829Z,68.37
2018-01-30T21:16:24.138Z,67.80
2018-01-30T21:18:50.378Z,69.23
2018-01-30T21:21:16.619Z,71.33
2018-01-30T21:23:43.047Z,66.90
2018-01-30T21:26:09.242Z,73.87
2018-01-30T21:28:35.437Z,72.73
2018-01-30T21:31:01.655Z,56.87
2018-01-30T21:33:27.942Z,55.77
2018-01-30T21:35:54.088Z,59.83
2018-01-30T21:38:20.230Z,59.03
2018-01-30T21:40:46.388Z,52.17
2018-01-30T21:43:12.562Z,53.27
2018-01-30T21:45:38.779Z,48.70
2018-01-30T21:48:04.979Z,50.53
2018-01-30T21:50:31.159Z,47.67
2018-01-30T21:52:57.307Z,46.63
2018-01-30T21:55:23.486Z,46.57
2018-01-30T21:57:49.662Z,38.57
2018-01-30T22:00:15.828Z,36.20
2018-01-30T22:02:42.011Z,32.30
2018-01-30T22:05:08.260Z,35.10
2018-01-30T22:07:34.391Z,30.53
2018-01-30T22:10:00.638Z,30.30
2018-01-30T22:12:26.834Z,31.17
2018-01-30T22:14:53.002Z,29.13
2018-01-30T22:17:19.236Z,31.83
2018-01-30T22:19:45.496Z,29.27
2018-01-30T22:22:11.655Z,33.03
2018-01-30T22:24:37.855Z,31.97
2018-01-30T22:27:04.061Z,35.40
2018-01-30T22:29:30.223Z,30.97
2018-01-30T22:31:56.431Z,31.93
2018-01-30T22:34:22.620Z,32.33
2018-01-30T22:36:48.792Z,36.33
2018-01-30T22:39:14.961Z,37.30
2018-01-30T22:41:41.088Z,38.10
2018-01-30T22:44:07.316Z,33.27
2018-01-30T22:46:33.552Z,36.63
